createdAt,value
2022-10-05T00:00:28.887Z,72.42
2022-10-05T00:02:58.197Z,72.45
2022-10-05T00:05:32.676Z,72.42
2022-10-05T00:08:14.196Z,72.62
2022-10-05T00:10:46.154Z,72.56
2022-10-05T00:13:20.887Z,72.57
2022-10-05T00:15:49.370Z,72.45
2022-10-05T00:18:22.717Z,72.48
2022-10-05T00:20:51.127Z,72.44
2022-10-05T00:23:30.640Z,72.47
2022-10-05T00:26:07.556Z,72.32
2022-10-05T00:28:35.412Z,72.37
2022-10-05T00:31:15.964Z,72.38
2022-10-05T00:33:45.167Z,72.27
2022-10-05T00:36:13.308Z,72.14
2022-10-05T00:38:44.331Z,72.23
2022-10-05T00:41:18.959Z,72.45
2022-10-05T00:44:06.394Z,72.53
2022-10-05T00:46:51.179Z,72.77
2022-10-05T00:49:37.043Z,73.04
2022-10-05T00:52:13.507Z,73.06
2022-10-05T00:55:05.615Z,72.94
2022-10-05T00:57:46.113Z,72.67
2022-10-05T01:00:18.629Z,72.96
2022-10-05T01:03:03.034Z,72.96
2022-10-05T01:05:45.183Z,72.99
2022-10-05T01:08:27.563Z,72.95
2022-10-05T01:11:12.319Z,73.05
2022-10-05T01:13:51.489Z,73.10
2022-10-05T01:16:29.046Z,73.23
2022-10-05T01:19:06.866Z,73.65
2022-10-05T01:21:48.663Z,73.29
2022-10-05T01:24:53.098Z,73.20
2022-10-05T01:27:43.551Z,73.10
2022-10-05T01:30:14.195Z,73.29
2022-10-05T01:32:48.408Z,73.35
2022-10-05T01:35:30.602Z,73.28
2022-10-05T01:38:20.832Z,73.08
2022-10-05T01:40:59.933Z,72.95
2022-10-05T01:43:44.464Z,72.98
2022-10-05T01:46:30.066Z,72.56
2022-10-05T01:49:18.946Z,72.72
2022-10-05T01:51:57.070Z,72.60
2022-10-05T01:54:36.356Z,72.69
2022-10-05T01:57:14.303Z,72.55
2022-10-05T02:00:04.474Z,72.65
2022-10-05T02:02:47.007Z,72.41
2022-10-05T02:05:22.125Z,72.72
2022-10-05T02:07:54.925Z,72.63
2022-10-05T02:10:27.014Z,72.63
2022-10-05T02:13:04.368Z,72.68
2022-10-05T02:15:42.755Z,72.40
2022-10-05T02:18:15.491Z,72.78
2022-10-05T02:20:45.608Z,72.73
2022-10-05T02:23:20.964Z,72.88
2022-10-05T02:25:52.812Z,72.73
2022-10-05T02:28:26.932Z,73.04
2022-10-05T02:31:02.322Z,73.00
2022-10-05T02:33:32.981Z,73.11
2022-10-05T02:36:15.920Z,73.26
2022-10-05T02:39:01.166Z,73.26
2022-10-05T02:41:42.166Z,73.41
2022-10-05T02:44:22.012Z,73.30
2022-10-05T02:47:01.333Z,73.50
2022-10-05T02:49:46.025Z,73.50
2022-10-05T02:52:22.590Z,73.67
2022-10-05T02:55:00.642Z,73.64
2022-10-05T02:57:33.074Z,73.84
2022-10-05T03:00:14.422Z,73.86
2022-10-05T03:02:49.995Z,74.00
2022-10-05T03:05:23.183Z,74.28
2022-10-05T03:08:02.918Z,73.81
2022-10-05T03:10:44.404Z,74.29
2022-10-05T03:13:22.517Z,74.20
2022-10-05T03:16:10.555Z,74.61
2022-10-05T03:18:53.956Z,74.58
2022-10-05T03:21:39.718Z,74.42
2022-10-05T03:24:31.561Z,74.36
2022-10-05T03:27:08.662Z,74.77
2022-10-05T03:29:41.745Z,74.55
2022-10-05T03:32:22.545Z,74.54
2022-10-05T03:34:56.810Z,74.49
2022-10-05T03:37:30.391Z,74.30
2022-10-05T03:40:08.114Z,74.28
2022-10-05T03:42:49.199Z,74.19
2022-10-05T03:45:28.716Z,74.25
2022-10-05T03:48:06.454Z,74.09
2022-10-05T03:50:46.540Z,74.18
2022-10-05T03:53:21.752Z,74.20
2022-10-05T03:55:55.415Z,74.37
2022-10-05T03:58:29.058Z,74.08
2022-10-05T04:01:03.452Z,74.15
2022-10-05T04:03:35.555Z,74.09
2022-10-05T04:06:11.189Z,74.70
2022-10-05T04:08:48.068Z,74.58
2022-10-05T04:11:26.561Z,74.37
2022-10-05T04:14:00.458Z,74.22
2022-10-05T04:16:33.384Z,74.43
2022-10-05T04:19:15.515Z,74.47
2022-10-05T04:21:52.723Z,74.22
2022-10-05T04:24:36.410Z,74.44
2022-10-05T04:27:11.593Z,74.18
2022-10-05T04:29:43.132Z,74.35
2022-10-05T04:32:29.659Z,74.14
2022-10-05T04:35:11.404Z,74.17
2022-10-05T04:37:50.982Z,74.27
2022-10-05T04:40:37.725Z,74.32
2022-10-05T04:43:14.098Z,74.32
2022-10-05T04:46:15.992Z,74.43
2022-10-05T04:49:21.851Z,74.61
2022-10-05T04:51:59.983Z,74.96
2022-10-05T04:54:42.943Z,75.13
2022-10-05T04:57:15.788Z,75.45
2022-10-05T05:00:04.805Z,75.16
2022-10-05T05:02:47.579Z,75.22
2022-10-05T05:06:05.111Z,75.80
2022-10-05T05:08:48.138Z,75.30
2022-10-05T05:11:29.967Z,75.76
2022-10-05T05:14:26.644Z,75.54
2022-10-05T05:17:13.017Z,75.18
2022-10-05T05:19:51.898Z,75.25
2022-10-05T05:22:29.019Z,75.66
2022-10-05T05:25:18.501Z,75.49
2022-10-05T05:27:53.541Z,75.39
2022-10-05T05:30:25.932Z,75.58
2022-10-05T05:33:05.742Z,75.26
2022-10-05T05:36:04.846Z,74.97
2022-10-05T05:38:36.273Z,75.31
2022-10-05T05:41:10.722Z,75.29
2022-10-05T05:44:05.752Z,75.44
2022-10-05T05:47:02.543Z,75.65
2022-10-05T05:49:50.720Z,75.74
2022-10-05T05:52:23.099Z,75.20
2022-10-05T05:54:57.826Z,75.44
2022-10-05T05:57:30.924Z,75.30
2022-10-05T06:00:08.101Z,74.94
2022-10-05T06:02:55.398Z,74.76
2022-10-05T06:05:32.528Z,74.81
2022-10-05T06:08:24.621Z,75.08
2022-10-05T06:11:00.257Z,74.88
2022-10-05T06:13:34.203Z,74.90
2022-10-05T06:16:18.597Z,75.02
2022-10-05T06:18:52.212Z,74.61
2022-10-05T06:21:29.741Z,74.71
2022-10-05T06:24:04.515Z,74.51
2022-10-05T06:27:27.538Z,74.93
2022-10-05T06:30:09.779Z,75.06
2022-10-05T06:33:06.103Z,74.76
2022-10-05T06:35:49.324Z,74.96
2022-10-05T06:38:47.770Z,74.31
2022-10-05T06:41:25.834Z,74.53
2022-10-05T06:43:59.729Z,74.33
2022-10-05T06:46:57.690Z,74.36
2022-10-05T06:49:52.169Z,74.10
2022-10-05T06:53:13.392Z,74.15
2022-10-05T06:55:50.242Z,74.13
2022-10-05T06:58:32.549Z,73.60
2022-10-05T07:01:06.574Z,73.57
2022-10-05T07:03:43.661Z,73.36
2022-10-05T07:06:17.631Z,73.03
2022-10-05T07:09:12.117Z,72.98
2022-10-05T07:12:04.602Z,73.08
2022-10-05T07:14:55.252Z,72.67
2022-10-05T07:17:37.012Z,72.46
2022-10-05T07:20:16.954Z,72.19
2022-10-05T07:23:20.645Z,72.43
2022-10-05T07:25:59.590Z,72.48
2022-10-05T07:28:43.091Z,72.47
2022-10-05T07:31:19.556Z,72.48
2022-10-05T07:33:58.905Z,72.85
2022-10-05T07:36:59.713Z,72.53
2022-10-05T07:39:58.983Z,73.00
2022-10-05T07:42:46.031Z,72.96
2022-10-05T07:45:28.611Z,72.96
2022-10-05T07:48:06.832Z,73.00
2022-10-05T07:50:45.109Z,72.82
2022-10-05T07:53:19.348Z,72.63
2022-10-05T07:55:54.454Z,72.17
2022-10-05T07:58:29.672Z,72.23
2022-10-05T08:01:08.920Z,72.54
2022-10-05T08:03:52.182Z,72.21
2022-10-05T08:06:34.844Z,72.86
2022-10-05T08:09:11.654Z,72.94
2022-10-05T08:11:48.397Z,72.77
2022-10-05T08:14:27.177Z,71.93
2022-10-05T08:16:59.083Z,71.08
2022-10-05T08:19:41.620Z,70.40
2022-10-05T08:22:13.731Z,69.96
2022-10-05T08:24:48.796Z,70.36
2022-10-05T08:27:21.784Z,70.19
2022-10-05T08:29:59.789Z,70.13
2022-10-05T08:32:32.373Z,70.05
2022-10-05T08:35:21.563Z,69.79
2022-10-05T08:37:50.942Z,69.54
2022-10-05T08:40:51.613Z,69.45
2022-10-05T08:43:45.228Z,69.76
2022-10-05T08:46:36.251Z,69.98
2022-10-05T08:49:30.628Z,69.66
2022-10-05T08:52:32.357Z,70.01
2022-10-05T08:55:30.162Z,69.24
2022-10-05T09:01:10.918Z,69.75
2022-10-05T09:04:22.072Z,70.06
2022-10-05T09:07:28.363Z,69.79
2022-10-05T09:10:29.617Z,69.97
2022-10-05T09:13:25.905Z,70.30
2022-10-05T09:16:14.673Z,70.68
2022-10-05T09:19:17.082Z,70.43
2022-10-05T09:21:57.455Z,70.37
2022-10-05T09:24:29.593Z,70.66
2022-10-05T09:27:11.230Z,71.02
2022-10-05T09:30:18.716Z,70.78
2022-10-05T09:33:26.965Z,70.98
2022-10-05T09:36:27.632Z,70.75
2022-10-05T09:39:37.799Z,70.82
2022-10-05T09:42:31.311Z,71.00
2022-10-05T09:45:37.088Z,70.97
2022-10-05T09:48:55.060Z,70.50
2022-10-05T09:51:54.468Z,70.69
2022-10-05T09:55:14.374Z,70.18
2022-10-05T09:58:40.891Z,70.45
2022-10-05T10:01:34.470Z,70.51
2022-10-05T10:04:25.729Z,70.59
2022-10-05T10:07:33.868Z,70.53
2022-10-05T10:10:55.467Z,69.97
2022-10-05T10:13:53.705Z,69.67
2022-10-05T10:17:00.371Z,69.63
2022-10-05T10:20:00.483Z,69.45
2022-10-05T10:23:05.700Z,69.33
2022-10-05T10:25:48.386Z,67.62
2022-10-05T10:28:42.373Z,69.32
2022-10-05T10:31:27.302Z,69.39
2022-10-05T10:34:14.508Z,69.17
2022-10-05T10:37:24.480Z,69.24
2022-10-05T10:40:27.773Z,69.29
2022-10-05T10:43:26.198Z,69.08
2022-10-05T10:46:07.542Z,69.76
2022-10-05T10:49:01.736Z,69.81
2022-10-05T10:51:53.843Z,69.74
2022-10-05T10:54:57.270Z,69.69
2022-10-05T10:57:35.500Z,69.45
2022-10-05T11:00:22.722Z,69.39
2022-10-05T11:03:26.256Z,69.02
2022-10-05T11:06:19.056Z,68.81
2022-10-05T11:09:02.412Z,68.57
2022-10-05T11:11:59.499Z,68.44
2022-10-05T11:15:02.345Z,67.68
2022-10-05T11:17:46.882Z,68.12
2022-10-05T11:20:44.632Z,67.36
2022-10-05T11:23:36.508Z,67.76
2022-10-05T11:26:34.507Z,67.54
2022-10-05T11:29:45.526Z,67.03
2022-10-05T11:32:35.104Z,67.38
2022-10-05T11:35:34.134Z,67.32
2022-10-05T11:38:34.126Z,67.57
2022-10-05T11:41:41.215Z,66.91
2022-10-05T11:44:39.429Z,67.14
2022-10-05T11:47:16.697Z,66.95
2022-10-05T11:49:49.628Z,67.29
2022-10-05T11:52:27.706Z,67.27
2022-10-05T11:55:15.447Z,66.43
2022-10-05T11:57:54.303Z,67.04
2022-10-05T12:00:24.074Z,66.79
2022-10-05T12:03:16.791Z,66.53
2022-10-05T12:05:58.337Z,66.51
2022-10-05T12:08:38.154Z,66.30
2022-10-05T12:11:26.842Z,66.17
2022-10-05T12:14:05.729Z,66.76
2022-10-05T12:16:41.568Z,66.27
2022-10-05T12:19:15.806Z,66.27
2022-10-05T12:21:52.577Z,66.04
2022-10-05T12:24:28.009Z,66.05
2022-10-05T12:27:02.407Z,66.52
2022-10-05T12:29:39.475Z,66.52
2022-10-05T12:32:14.429Z,67.21
2022-10-05T12:35:03.209Z,66.68
2022-10-05T12:37:56.144Z,63.49
2022-10-05T12:40:46.166Z,65.99
2022-10-05T12:43:24.013Z,66.39
2022-10-05T12:46:04.755Z,66.32
2022-10-05T12:48:52.617Z,66.50
2022-10-05T12:51:26.348Z,66.50
2022-10-05T12:54:01.097Z,66.41
2022-10-05T12:56:43.269Z,66.04
2022-10-05T12:59:30.753Z,63.79
2022-10-05T13:02:08.773Z,66.10
2022-10-05T13:04:46.837Z,66.28
2022-10-05T13:07:39.266Z,66.72
2022-10-05T13:10:28.123Z,66.29
2022-10-05T13:13:07.012Z,66.24
2022-10-05T13:15:42.647Z,66.32
2022-10-05T13:18:23.428Z,65.85
2022-10-05T13:21:02.775Z,66.29
2022-10-05T13:23:41.865Z,66.05
2022-10-05T13:26:13.445Z,66.21
2022-10-05T13:28:50.422Z,66.22
2022-10-05T13:31:24.784Z,66.24
2022-10-05T13:34:02.589Z,66.32
2022-10-05T13:36:42.126Z,65.56
2022-10-05T13:39:22.407Z,65.84
2022-10-05T13:41:55.530Z,65.80
2022-10-05T13:44:31.877Z,65.85
2022-10-05T13:47:02.970Z,65.65
2022-10-05T13:49:40.170Z,65.38
2022-10-05T13:52:22.744Z,65.63
2022-10-05T13:54:59.637Z,66.07
2022-10-05T13:57:45.957Z,64.89
2022-10-05T14:00:24.156Z,65.33
2022-10-05T14:02:57.304Z,65.50
2022-10-05T14:05:28.797Z,65.21
2022-10-05T14:07:58.440Z,65.40
2022-10-05T14:10:40.721Z,65.30
2022-10-05T14:13:26.815Z,64.75
2022-10-05T14:16:05.506Z,65.45
2022-10-05T14:18:37.485Z,65.30
2022-10-05T14:21:22.135Z,65.04
2022-10-05T14:23:52.644Z,65.40
2022-10-05T14:26:33.729Z,64.81
2022-10-05T14:29:18.238Z,64.95
2022-10-05T14:31:52.272Z,62.90
2022-10-05T14:34:37.050Z,65.03
2022-10-05T14:37:20.379Z,65.24
2022-10-05T14:39:50.038Z,65.54
2022-10-05T14:42:20.575Z,65.76
2022-10-05T14:45:13.994Z,65.66
2022-10-05T14:47:50.178Z,65.81
2022-10-05T14:50:21.364Z,65.93
2022-10-05T14:53:10.288Z,65.69
2022-10-05T14:56:13.919Z,65.76
2022-10-05T14:58:59.527Z,65.73
2022-10-05T15:01:31.019Z,65.78
2022-10-05T15:04:17.864Z,65.33
2022-10-05T15:06:55.447Z,63.93
2022-10-05T15:09:51.081Z,62.92
2022-10-05T15:12:25.944Z,62.50
2022-10-05T15:15:06.959Z,62.90
2022-10-05T15:17:44.507Z,63.89
2022-10-05T15:20:21.476Z,64.87
2022-10-05T15:22:55.240Z,65.95
2022-10-05T15:25:30.667Z,66.40
2022-10-05T15:28:16.521Z,66.59
2022-10-05T15:30:53.583Z,66.77
2022-10-05T15:33:30.201Z,67.15
2022-10-05T15:36:15.161Z,67.28
2022-10-05T15:38:59.457Z,67.49
2022-10-05T15:41:52.863Z,67.58
2022-10-05T15:44:36.751Z,67.38
2022-10-05T15:47:07.856Z,67.54
2022-10-05T15:49:45.425Z,67.73
2022-10-05T15:52:24.449Z,67.86
2022-10-05T15:55:26.538Z,68.05
2022-10-05T15:58:09.031Z,68.32
2022-10-05T16:00:48.712Z,68.06
2022-10-05T16:03:26.759Z,68.22
2022-10-05T16:06:17.645Z,68.26
2022-10-05T16:09:08.259Z,68.60
2022-10-05T16:12:00.904Z,68.83
2022-10-05T16:14:45.839Z,68.86
2022-10-05T16:17:32.064Z,69.28
2022-10-05T16:20:19.392Z,68.95
2022-10-05T16:22:52.505Z,69.15
2022-10-05T16:25:24.449Z,69.39
2022-10-05T16:28:05.827Z,69.29
2022-10-05T16:30:53.333Z,69.34
2022-10-05T16:33:29.338Z,69.38
2022-10-05T16:36:16.177Z,69.36
2022-10-05T16:38:50.385Z,69.32
2022-10-05T16:41:28.327Z,69.49
2022-10-05T16:44:10.395Z,69.39
2022-10-05T16:46:46.602Z,69.69
2022-10-05T16:49:25.562Z,69.97
2022-10-05T16:51:59.010Z,69.93
2022-10-05T16:54:32.650Z,70.04
2022-10-05T16:57:07.835Z,70.05
2022-10-05T17:00:12.168Z,69.74
2022-10-05T17:03:05.802Z,69.97
2022-10-05T17:05:57.493Z,69.63
2022-10-05T17:08:45.897Z,69.80
2022-10-05T17:11:28.736Z,69.97
2022-10-05T17:14:22.331Z,69.86
2022-10-05T17:17:05.363Z,69.88
2022-10-05T17:19:51.237Z,69.37
2022-10-05T17:22:28.786Z,69.96
2022-10-05T17:25:04.665Z,69.97
2022-10-05T17:27:50.978Z,69.95
2022-10-05T17:30:48.458Z,69.57
2022-10-05T17:33:22.424Z,69.63
2022-10-05T17:36:13.559Z,69.56
2022-10-05T17:38:52.458Z,69.94
2022-10-05T17:41:25.755Z,69.60
2022-10-05T17:44:26.220Z,69.60
2022-10-05T17:46:56.947Z,69.90
2022-10-05T17:50:08.684Z,69.39
2022-10-05T17:53:02.238Z,69.62
2022-10-05T17:56:03.811Z,69.69
2022-10-05T17:59:06.722Z,69.41
2022-10-05T18:01:36.648Z,69.35
2022-10-05T18:04:38.625Z,69.44
2022-10-05T18:07:36.795Z,69.40
2022-10-05T18:10:28.967Z,69.24
2022-10-05T18:13:20.908Z,69.93
2022-10-05T18:15:50.273Z,69.61
2022-10-05T18:18:59.909Z,70.02
2022-10-05T18:21:35.478Z,70.20
2022-10-05T18:24:20.204Z,70.03
2022-10-05T18:26:59.575Z,69.86
2022-10-05T18:30:06.319Z,70.33
2022-10-05T18:32:46.145Z,70.04
2022-10-05T18:35:17.146Z,70.42
2022-10-05T18:37:56.034Z,70.61
2022-10-05T18:40:37.014Z,70.42
2022-10-05T18:43:19.675Z,70.53
2022-10-05T18:46:02.558Z,70.31
2022-10-05T18:48:50.384Z,70.59
2022-10-05T18:51:28.386Z,70.51
2022-10-05T18:54:10.848Z,70.16
2022-10-05T18:56:46.697Z,70.35
2022-10-05T18:59:45.039Z,69.85
2022-10-05T19:02:23.081Z,69.34
2022-10-05T19:05:18.952Z,69.41
2022-10-05T19:08:08.628Z,69.41
2022-10-05T19:10:44.993Z,69.62
2022-10-05T19:13:31.808Z,69.33
2022-10-05T19:16:17.134Z,68.72
2022-10-05T19:18:58.193Z,69.05
2022-10-05T19:21:31.992Z,68.76
2022-10-05T19:24:19.814Z,68.41
2022-10-05T19:27:04.473Z,68.40
2022-10-05T19:30:03.439Z,68.36
2022-10-05T19:32:44.965Z,68.65
2022-10-05T19:35:25.601Z,68.65
2022-10-05T19:38:15.197Z,68.68
2022-10-05T19:40:53.081Z,68.11
2022-10-05T19:43:41.023Z,68.30
2022-10-05T19:46:21.380Z,68.63
2022-10-05T19:48:53.863Z,68.62
2022-10-05T19:51:38.605Z,68.55
2022-10-05T19:54:17.449Z,69.15
2022-10-05T19:56:49.475Z,68.51
2022-10-05T19:59:20.616Z,68.71
2022-10-05T20:01:56.302Z,68.50
2022-10-05T20:04:43.560Z,68.74
2022-10-05T20:07:15.706Z,68.69
2022-10-05T20:10:17.552Z,68.91
2022-10-05T20:12:50.545Z,68.20
2022-10-05T20:15:39.144Z,68.00
2022-10-05T20:19:12.784Z,68.18
2022-10-05T20:21:45.894Z,68.47
2022-10-05T20:24:17.052Z,68.48
2022-10-05T20:27:16.482Z,68.27
2022-10-05T20:29:45.925Z,68.18
2022-10-05T20:32:17.680Z,68.53
2022-10-05T20:34:49.387Z,68.54
2022-10-05T20:37:28.466Z,68.51
2022-10-05T20:39:56.267Z,68.24
2022-10-05T20:42:24.087Z,68.21
2022-10-05T20:44:56.658Z,68.22
2022-10-05T20:47:28.128Z,68.50
2022-10-05T20:49:58.384Z,68.54
2022-10-05T20:52:27.592Z,68.59
2022-10-05T20:54:58.812Z,68.40
2022-10-05T20:57:27.515Z,68.80
2022-10-05T20:59:55.276Z,69.10
2022-10-05T21:02:23.020Z,69.48
2022-10-05T21:04:51.368Z,69.85
2022-10-05T21:07:21.151Z,70.02
2022-10-05T21:09:51.541Z,69.82
2022-10-05T21:12:19.347Z,70.07
2022-10-05T21:14:47.431Z,70.26
2022-10-05T21:17:15.201Z,70.55
2022-10-05T21:19:43.134Z,70.52
2022-10-05T21:22:11.595Z,70.77
2022-10-05T21:24:40.919Z,70.62
2022-10-05T21:27:10.161Z,70.61
2022-10-05T21:29:43.739Z,70.83
2022-10-05T21:32:12.229Z,70.76
2022-10-05T21:34:44.786Z,70.62
2022-10-05T21:37:12.725Z,70.49
2022-10-05T21:39:40.429Z,70.87
2022-10-05T21:42:08.200Z,70.40
2022-10-05T21:44:37.337Z,70.33
2022-10-05T21:47:06.984Z,70.26
2022-10-05T21:49:34.963Z,70.13
2022-10-05T21:52:06.326Z,69.98
2022-10-05T21:54:35.031Z,69.89
2022-10-05T21:57:03.309Z,69.77
2022-10-05T21:59:34.355Z,69.70
2022-10-05T22:02:03.541Z,69.95
2022-10-05T22:04:38.683Z,69.87
2022-10-05T22:07:19.009Z,70.04
2022-10-05T22:09:48.276Z,70.08
2022-10-05T22:12:22.722Z,69.99
2022-10-05T22:14:52.855Z,70.06
2022-10-05T22:17:27.136Z,69.72
2022-10-05T22:19:56.055Z,69.58
2022-10-05T22:22:24.196Z,69.16
2022-10-05T22:24:53.173Z,69.56
2022-10-05T22:27:26.671Z,70.00
2022-10-05T22:29:58.164Z,69.74
2022-10-05T22:32:36.283Z,69.74
2022-10-05T22:35:07.866Z,69.56
2022-10-05T22:37:38.803Z,69.96
2022-10-05T22:40:08.179Z,69.94
2022-10-05T22:42:36.089Z,69.95
2022-10-05T22:45:03.941Z,69.91
2022-10-05T22:47:33.084Z,70.17
2022-10-05T22:50:01.309Z,70.24
2022-10-05T22:52:29.501Z,70.04
2022-10-05T22:54:57.203Z,70.17
2022-10-05T22:57:27.850Z,70.17
2022-10-05T22:59:55.594Z,69.99
2022-10-05T23:02:29.415Z,70.07
2022-10-05T23:04:59.012Z,70.37
2022-10-05T23:07:26.813Z,70.15
2022-10-05T23:09:54.601Z,70.20
2022-10-05T23:12:28.379Z,70.43
2022-10-05T23:14:58.380Z,70.10
2022-10-05T23:17:28.333Z,69.94
2022-10-05T23:19:56.101Z,70.07
2022-10-05T23:22:29.889Z,69.83
2022-10-05T23:24:57.719Z,69.56
2022-10-05T23:27:32.963Z,69.64
2022-10-05T23:30:00.761Z,69.71
2022-10-05T23:32:31.575Z,69.48
2022-10-05T23:34:59.318Z,69.47
2022-10-05T23:37:32.533Z,69.44
2022-10-05T23:40:00.267Z,69.61
2022-10-05T23:42:28.051Z,69.51
2022-10-05T23:44:55.826Z,69.51
2022-10-05T23:47:23.675Z,69.62
2022-10-05T23:49:51.668Z,70.02
2022-10-05T23:52:19.722Z,69.92
2022-10-05T23:54:48.914Z,70.19
2022-10-05T23:57:17.802Z,70.15
2022-10-05T23:59:51.161Z,70.23
